George, Iowa
Current Conditions -  °F | °C
As of 7:55 AM on Wednesday 28 Jan 2015 (Local Time) from KSHL Reporting Station
Haze Haze  
Wind Chill: 19°   Ceiling: 700
Heat Index: NA   Visibility: 4mi
Dew Point: 32°   Wind: 15mph
Humidity: NA   Direction: 150°SSE
Pressure: 29.85"   Gusts: 23mph
Location:  43.34°N, 96°W
Report Text: KSHL 281355Z AUTO 15013G20KT 4SM BR BKN007 M01/M00 A2985 RMK AO2
Loading
Personal Weather Stations






























Interactive Weather Map New forecast layout! Learn more

10-Day Weather Forecast

Advertisements
Track Severe Weather on mobile